Impacts TAF Board INFO
FOR SITUATIONAL AWARENESS. NOT TO BE USED FOR FLIGHT PLANNING PURPOSES.
IDs:

KSTL - St Louis/Lambert Int, MO, US

Issued at 1455 UTC 23 Jan 2018
Updated at 1539 UTC 23 Jan 2018
Potential Impact None Slight Moderate High
Time<<24/04Z 24/05Z 24/06Z 24/07Z 24/08Z 24/09Z 24/10Z 24/11Z 24/12Z 24/13Z 24/14Z 24/15Z 24/16Z>>
Type PRVL PRVL PRVL PRVL PRVL PRVL PRVL PRVL PRVL PRVL PRVL PRVL PRVL
VIS >6 >6 >6 >6 >6 >6 >6 >6 >6 >6 >6 >6 >6
CIG -- -- -- -- -- -- 70 70 70 70 70 70 70
Cover SCT SCT SCT SCT SCT SCT BKN BKN BKN BKN BKN BKN BKN
FltCat VFR VFR VFR VFR VFR VFR VFR VFR VFR VFR VFR VFR VFR
WX -- -- -- -- -- -- -- -- -- -- -- -- --
WDir 290 290 290 290 290 290 270 270 270 270 270 270 270
WSpd 6 6 6 6 6 6 4 4 4 4 4 4 4
WGst -- -- -- -- -- -- -- -- -- -- -- -- --

Raw TAF
KSTL 231455Z 2315/2418 29015G25KT P6SM OVC020
  FM231900 29014G22KT P6SM OVC020
  FM240100 29006KT P6SM SCT150
  FM241000 27004KT P6SM BKN070


METAR Board
Radar Display
Forecast Discussion

FOR SITUATIONAL AWARENESS. NOT TO BE USED FOR FLIGHT PLANNING PURPOSES.